createdAt,value
2022-12-08T00:01:07.461Z,86.61
2022-12-08T00:03:34.481Z,86.64
2022-12-08T00:06:20.501Z,86.53
2022-12-08T00:09:05.941Z,85.62
2022-12-08T00:11:32.634Z,85.44
2022-12-08T00:13:59.268Z,85.87
2022-12-08T00:16:26.108Z,86.66
2022-12-08T00:18:52.804Z,87.98
2022-12-08T00:21:19.518Z,88.50
2022-12-08T00:23:46.193Z,88.68
2022-12-08T00:26:12.794Z,87.25
2022-12-08T00:28:39.489Z,87.83
2022-12-08T00:31:10.102Z,87.68
2022-12-08T00:33:38.137Z,88.26
2022-12-08T00:36:08.754Z,88.56
2022-12-08T00:38:36.361Z,88.96
2022-12-08T00:41:03.729Z,89.42
2022-12-08T00:43:30.467Z,89.89
2022-12-08T00:45:57.458Z,91.62
2022-12-08T00:48:24.240Z,90.88
2022-12-08T00:50:50.853Z,89.84
2022-12-08T00:53:17.701Z,87.79
2022-12-08T00:55:44.328Z,88.66
2022-12-08T00:58:10.965Z,89.00
2022-12-08T01:00:37.613Z,87.58
2022-12-08T01:03:04.339Z,86.08
2022-12-08T01:05:31.142Z,86.70
2022-12-08T01:07:57.779Z,85.14
2022-12-08T01:10:24.449Z,87.92
2022-12-08T01:12:51.120Z,87.28
2022-12-08T01:15:17.750Z,87.12
2022-12-08T01:17:44.390Z,87.71
2022-12-08T01:20:11.400Z,86.33
2022-12-08T01:22:38.082Z,86.21
2022-12-08T01:25:04.993Z,85.22
2022-12-08T01:27:31.660Z,85.60
2022-12-08T01:29:58.288Z,85.94
2022-12-08T01:32:24.933Z,85.12
2022-12-08T01:34:51.596Z,84.91
2022-12-08T01:37:18.286Z,85.11
2022-12-08T01:39:44.964Z,85.08
2022-12-08T01:42:20.432Z,85.60
2022-12-08T01:44:52.621Z,85.31
2022-12-08T01:47:19.269Z,87.22
2022-12-08T01:49:45.961Z,85.34
2022-12-08T01:52:21.724Z,86.26
2022-12-08T01:54:51.441Z,84.78
2022-12-08T01:57:27.595Z,86.03
2022-12-08T01:59:57.918Z,85.60
2022-12-08T02:02:24.610Z,85.95
2022-12-08T02:04:51.358Z,85.96
2022-12-08T02:07:17.980Z,88.15
2022-12-08T02:09:44.619Z,88.71
2022-12-08T02:12:11.254Z,86.87
2022-12-08T02:14:37.918Z,85.68
2022-12-08T02:17:35.583Z,83.78
2022-12-08T02:20:23.991Z,81.28
2022-12-08T02:23:18.280Z,81.65
2022-12-08T02:26:29.872Z,81.21
2022-12-08T02:29:09.414Z,81.43
2022-12-08T02:31:57.794Z,83.21
2022-12-08T02:34:35.054Z,83.99
2022-12-08T02:37:08.177Z,82.86
2022-12-08T02:40:20.698Z,83.74
2022-12-08T02:43:13.292Z,83.91
2022-12-08T02:45:43.583Z,84.43
2022-12-08T02:48:10.189Z,84.78
2022-12-08T02:50:36.894Z,84.35
2022-12-08T02:55:49.010Z,85.63
2022-12-08T02:58:21.539Z,87.11
2022-12-08T03:01:01.642Z,86.15
2022-12-08T03:03:40.330Z,84.67
2022-12-08T03:06:09.784Z,84.12
2022-12-08T03:08:44.652Z,83.59
2022-12-08T03:11:25.249Z,84.00
2022-12-08T03:13:53.553Z,84.44
2022-12-08T03:16:25.821Z,85.02
2022-12-08T03:19:26.806Z,83.47
2022-12-08T03:22:00.439Z,82.31
2022-12-08T03:24:27.191Z,83.17
2022-12-08T03:26:59.617Z,82.79
2022-12-08T03:29:26.254Z,82.03
2022-12-08T03:31:55.718Z,82.74
2022-12-08T03:34:23.379Z,81.07
2022-12-08T03:36:50.064Z,81.17
2022-12-08T03:39:16.758Z,79.99
2022-12-08T03:41:43.460Z,82.94
2022-12-08T03:44:10.265Z,84.79
2022-12-08T03:46:36.926Z,84.41
2022-12-08T03:49:03.560Z,85.47
2022-12-08T03:51:30.165Z,88.58
2022-12-08T03:53:57.019Z,89.29
2022-12-08T03:56:30.770Z,88.67
2022-12-08T03:58:57.362Z,87.66
2022-12-08T04:01:24.214Z,85.91
2022-12-08T04:03:51.062Z,86.37
2022-12-08T04:06:17.710Z,86.17
2022-12-08T04:08:44.436Z,85.11
2022-12-08T04:11:11.073Z,83.84
2022-12-08T04:13:38.528Z,84.37
2022-12-08T04:16:05.620Z,83.80
2022-12-08T04:18:32.979Z,86.66
2022-12-08T04:20:59.646Z,88.43
2022-12-08T04:23:26.248Z,87.93
2022-12-08T04:25:53.107Z,87.73
2022-12-08T04:28:19.816Z,88.92
2022-12-08T04:30:48.262Z,89.24
2022-12-08T04:33:15.092Z,88.17
2022-12-08T04:35:41.714Z,88.46
2022-12-08T04:38:08.406Z,89.34
2022-12-08T04:40:35.118Z,88.98
2022-12-08T04:43:01.720Z,89.21
2022-12-08T04:45:28.413Z,88.11
2022-12-08T04:47:55.036Z,88.02
2022-12-08T04:50:21.675Z,88.22
2022-12-08T04:52:48.430Z,88.71
2022-12-08T04:55:15.203Z,88.68
2022-12-08T04:57:41.880Z,89.21
2022-12-08T05:00:08.869Z,89.11
2022-12-08T05:02:35.974Z,89.22
2022-12-08T05:05:02.676Z,90.67
2022-12-08T05:07:29.421Z,92.07
2022-12-08T05:09:56.093Z,90.38
2022-12-08T05:12:22.698Z,89.64
2022-12-08T05:14:49.405Z,90.76
2022-12-08T05:17:17.213Z,90.08
2022-12-08T05:19:43.933Z,90.91
2022-12-08T05:22:10.522Z,89.45
2022-12-08T05:24:38.054Z,87.70
2022-12-08T05:27:07.076Z,87.15
2022-12-08T05:29:33.762Z,88.57
2022-12-08T05:32:00.489Z,88.14
2022-12-08T05:34:27.241Z,87.01
2022-12-08T05:36:53.873Z,86.98
2022-12-08T05:39:20.515Z,86.67
2022-12-08T05:41:47.162Z,89.45
2022-12-08T05:44:13.886Z,89.02
2022-12-08T05:46:40.586Z,90.21
2022-12-08T05:49:07.293Z,89.37
2022-12-08T05:51:33.923Z,90.40
2022-12-08T05:54:00.507Z,89.98
2022-12-08T05:56:27.174Z,88.87
2022-12-08T05:58:54.007Z,87.33
2022-12-08T06:01:25.724Z,87.34
2022-12-08T06:03:52.517Z,87.33
2022-12-08T06:06:19.397Z,85.21
2022-12-08T06:08:46.180Z,85.24
2022-12-08T06:11:23.454Z,85.03
2022-12-08T06:13:50.197Z,85.60
2022-12-08T06:16:17.139Z,85.85
2022-12-08T06:18:44.186Z,86.49
2022-12-08T06:21:11.877Z,86.22
2022-12-08T06:23:38.596Z,86.83
2022-12-08T06:26:10.073Z,88.01
2022-12-08T06:28:36.866Z,88.14
2022-12-08T06:31:11.080Z,87.47
2022-12-08T06:33:37.986Z,89.08
2022-12-08T06:36:05.766Z,88.12
2022-12-08T06:38:32.494Z,88.95
2022-12-08T06:40:59.376Z,88.59
2022-12-08T06:43:26.539Z,89.16
2022-12-08T06:45:53.523Z,88.38
2022-12-08T06:48:20.292Z,88.90
2022-12-08T06:50:46.931Z,90.15
2022-12-08T06:53:14.953Z,89.99
2022-12-08T06:55:59.164Z,88.51
2022-12-08T06:58:26.373Z,88.82
2022-12-08T07:00:53.726Z,89.04
2022-12-08T07:03:20.672Z,88.87
2022-12-08T07:05:47.433Z,89.49
2022-12-08T07:08:14.285Z,89.59
2022-12-08T07:10:41.012Z,88.64
2022-12-08T07:13:07.687Z,89.89
2022-12-08T07:15:34.331Z,90.34
2022-12-08T07:18:01.020Z,90.80
2022-12-08T07:20:27.884Z,90.50
2022-12-08T07:22:54.515Z,89.09
2022-12-08T07:25:21.208Z,88.68
2022-12-08T07:27:47.963Z,89.54
2022-12-08T07:30:15.069Z,88.72
2022-12-08T07:32:41.827Z,88.78
2022-12-08T07:35:10.218Z,88.30
2022-12-08T07:37:37.635Z,87.55
2022-12-08T07:40:06.116Z,87.71
2022-12-08T07:42:33.146Z,88.35
2022-12-08T07:44:59.761Z,88.10
2022-12-08T07:47:26.505Z,87.50
2022-12-08T07:49:53.074Z,87.63
2022-12-08T07:52:19.703Z,88.28
2022-12-08T07:54:47.002Z,87.93
2022-12-08T07:57:13.651Z,87.40
2022-12-08T07:59:40.312Z,87.43
2022-12-08T08:02:24.102Z,87.90
2022-12-08T08:04:51.950Z,88.21
2022-12-08T08:07:18.652Z,88.22
2022-12-08T08:09:45.913Z,88.08
2022-12-08T08:12:33.255Z,89.39
2022-12-08T08:15:00.249Z,90.65
2022-12-08T08:17:27.069Z,89.67
2022-12-08T08:19:53.799Z,88.48
2022-12-08T08:22:20.519Z,88.25
2022-12-08T08:24:47.173Z,87.62
2022-12-08T08:27:14.032Z,88.17
2022-12-08T08:29:40.744Z,88.19
2022-12-08T08:32:07.309Z,88.38
2022-12-08T08:34:34.001Z,88.18
2022-12-08T08:37:00.695Z,88.52
2022-12-08T08:39:27.618Z,88.05
2022-12-08T08:41:54.236Z,87.61
2022-12-08T08:44:20.799Z,86.36
2022-12-08T08:46:47.648Z,86.09
2022-12-08T08:49:14.293Z,85.06
2022-12-08T08:51:40.977Z,84.65
2022-12-08T08:54:07.578Z,86.02
2022-12-08T08:56:34.219Z,85.87
2022-12-08T08:59:01.802Z,85.06
2022-12-08T09:01:28.740Z,86.61
2022-12-08T09:03:56.009Z,86.53
2022-12-08T09:06:23.332Z,85.93
2022-12-08T09:08:50.370Z,85.38
2022-12-08T09:11:18.690Z,83.50
2022-12-08T09:13:48.439Z,83.17
2022-12-08T09:16:15.067Z,83.38
2022-12-08T09:18:42.003Z,82.62
2022-12-08T09:21:13.075Z,81.59
2022-12-08T09:23:39.913Z,80.32
2022-12-08T09:26:06.551Z,80.26
2022-12-08T09:28:33.249Z,80.36
2022-12-08T09:31:00.289Z,80.04
2022-12-08T09:33:27.101Z,78.39
2022-12-08T09:35:53.709Z,77.40
2022-12-08T09:38:20.400Z,77.29
2022-12-08T09:40:51.760Z,74.81
2022-12-08T09:43:43.236Z,74.75
2022-12-08T09:46:10.827Z,74.71
2022-12-08T09:48:43.570Z,74.11
2022-12-08T09:51:10.265Z,73.96
2022-12-08T09:53:42.498Z,74.64
2022-12-08T09:56:14.862Z,73.42
2022-12-08T09:59:08.673Z,73.87
2022-12-08T10:01:42.062Z,72.98
2022-12-08T10:04:14.835Z,73.90
2022-12-08T10:06:45.143Z,73.23
2022-12-08T10:09:30.068Z,72.90
2022-12-08T10:12:20.337Z,73.75
2022-12-08T10:15:24.429Z,73.85
2022-12-08T10:17:53.853Z,72.59
2022-12-08T10:20:23.422Z,70.81
2022-12-08T10:22:53.341Z,71.80
2022-12-08T10:25:31.609Z,70.82
2022-12-08T10:27:58.217Z,71.79
2022-12-08T10:30:24.970Z,70.30
2022-12-08T10:32:52.309Z,70.86
2022-12-08T10:35:20.456Z,69.95
2022-12-08T10:38:10.120Z,68.81
2022-12-08T10:40:42.163Z,68.98
2022-12-08T10:43:18.127Z,68.18
2022-12-08T10:45:45.060Z,70.20
2022-12-08T10:48:16.162Z,70.10
2022-12-08T10:50:58.865Z,69.01
2022-12-08T10:53:29.812Z,69.62
2022-12-08T10:56:02.372Z,69.54
2022-12-08T10:58:34.123Z,68.24
2022-12-08T11:01:25.911Z,69.42
2022-12-08T11:03:56.867Z,69.36
2022-12-08T11:06:33.175Z,69.03
2022-12-08T11:09:05.545Z,68.31
2022-12-08T11:12:01.000Z,69.38
2022-12-08T11:14:44.072Z,69.40
2022-12-08T11:17:13.374Z,68.85
2022-12-08T11:19:42.318Z,69.63
2022-12-08T11:22:32.360Z,68.16
2022-12-08T11:25:07.844Z,68.99
2022-12-08T11:27:36.801Z,69.15
2022-12-08T11:30:12.603Z,69.96
2022-12-08T11:32:47.735Z,68.86
2022-12-08T11:35:32.708Z,71.25
2022-12-08T11:38:21.243Z,71.36
2022-12-08T11:40:50.695Z,71.42
2022-12-08T11:43:23.460Z,72.42
2022-12-08T11:45:52.007Z,72.07
2022-12-08T11:48:22.289Z,71.23
2022-12-08T11:51:11.082Z,71.61
2022-12-08T11:54:07.492Z,70.82
2022-12-08T11:56:36.746Z,72.42
2022-12-08T11:59:27.117Z,70.24
2022-12-08T12:01:53.793Z,71.49
2022-12-08T12:04:22.380Z,71.33
2022-12-08T12:06:56.030Z,72.11
2022-12-08T12:09:53.366Z,71.30
2022-12-08T12:12:27.672Z,72.00
2022-12-08T12:15:16.935Z,71.71
2022-12-08T12:18:16.754Z,71.96
2022-12-08T12:21:18.401Z,71.19
2022-12-08T12:23:48.111Z,70.92
2022-12-08T12:26:22.935Z,70.99
2022-12-08T12:28:49.922Z,70.87
2022-12-08T12:31:17.112Z,70.99
2022-12-08T12:33:44.168Z,70.52
2022-12-08T12:36:10.831Z,70.54
2022-12-08T12:38:58.338Z,70.61
2022-12-08T12:41:52.947Z,69.84
2022-12-08T12:44:19.537Z,70.68
2022-12-08T12:46:46.114Z,70.42
2022-12-08T12:49:40.410Z,70.16
2022-12-08T12:52:15.932Z,66.66
2022-12-08T12:55:11.656Z,65.19
2022-12-08T12:57:54.259Z,65.03
2022-12-08T13:00:25.553Z,65.27
2022-12-08T13:02:56.084Z,65.06
2022-12-08T13:05:25.127Z,65.32
2022-12-08T13:08:08.621Z,65.83
2022-12-08T13:10:39.198Z,66.71
2022-12-08T13:13:07.137Z,66.43
2022-12-08T13:15:40.613Z,66.38
2022-12-08T13:18:19.249Z,66.37
2022-12-08T13:20:55.475Z,66.29
2022-12-08T13:23:37.207Z,67.75
2022-12-08T13:26:17.305Z,67.23
2022-12-08T13:28:59.324Z,67.33
2022-12-08T13:31:48.283Z,68.33
2022-12-08T13:34:45.287Z,67.79
2022-12-08T13:37:11.945Z,68.07
2022-12-08T13:39:55.516Z,68.52
2022-12-08T13:42:22.367Z,68.59
2022-12-08T13:45:36.250Z,69.07
2022-12-08T13:49:31.995Z,69.74
2022-12-08T13:57:10.701Z,70.72
2022-12-08T13:59:43.439Z,71.13
2022-12-08T14:02:33.326Z,70.38
2022-12-08T14:07:47.453Z,70.93
2022-12-08T14:10:25.374Z,70.92
2022-12-08T14:12:57.362Z,71.71
2022-12-08T14:15:24.442Z,71.88
2022-12-08T14:17:55.544Z,71.59
2022-12-08T14:20:30.032Z,72.02
2022-12-08T14:22:56.834Z,71.98
2022-12-08T14:25:24.758Z,72.22
2022-12-08T14:27:51.375Z,73.03
2022-12-08T14:30:24.891Z,72.44
2022-12-08T14:32:54.219Z,72.56
2022-12-08T14:35:30.789Z,72.60
2022-12-08T14:38:02.105Z,72.25
2022-12-08T14:40:41.919Z,72.28
2022-12-08T14:43:17.530Z,72.72
2022-12-08T14:45:44.202Z,72.61
2022-12-08T14:48:36.196Z,72.98
2022-12-08T14:51:21.229Z,73.18
2022-12-08T14:54:00.669Z,73.46
2022-12-08T14:56:52.182Z,73.96
2022-12-08T14:59:37.799Z,73.84
2022-12-08T15:02:10.597Z,74.41
2022-12-08T15:04:37.935Z,74.19
2022-12-08T15:07:08.025Z,74.63
2022-12-08T15:09:34.646Z,74.27
2022-12-08T15:12:02.651Z,74.11
2022-12-08T15:14:32.216Z,74.85
2022-12-08T15:16:58.964Z,74.78
2022-12-08T15:19:28.589Z,74.86
2022-12-08T15:21:59.984Z,75.24
2022-12-08T15:24:27.604Z,75.18
2022-12-08T15:26:54.290Z,75.57
2022-12-08T15:29:25.869Z,76.05
2022-12-08T15:31:54.476Z,75.80
2022-12-08T15:34:21.307Z,75.24
2022-12-08T15:36:51.497Z,75.30
2022-12-08T15:39:18.043Z,76.14
2022-12-08T15:41:44.709Z,75.73
2022-12-08T15:44:11.462Z,75.63
2022-12-08T15:46:38.155Z,75.87
2022-12-08T15:49:05.496Z,76.00
2022-12-08T15:51:36.520Z,76.00
2022-12-08T15:54:03.086Z,76.04
2022-12-08T15:56:29.750Z,76.48
2022-12-08T15:58:57.560Z,76.61
2022-12-08T16:01:24.839Z,76.53
2022-12-08T16:09:38.972Z,78.35
2022-12-08T16:16:02.997Z,78.11
2022-12-08T16:18:24.044Z,78.22
2022-12-08T16:21:13.912Z,77.54
2022-12-08T16:23:45.514Z,77.92
2022-12-08T16:26:35.411Z,77.77
2022-12-08T16:29:00.874Z,78.08
2022-12-08T16:31:27.628Z,76.92
2022-12-08T16:33:54.313Z,77.60
2022-12-08T16:36:21.057Z,77.31
2022-12-08T16:38:47.761Z,77.95
2022-12-08T16:41:33.500Z,78.22
2022-12-08T16:44:04.144Z,77.98
2022-12-08T16:46:30.916Z,78.31
2022-12-08T16:48:59.068Z,79.02
2022-12-08T16:51:27.334Z,79.31
2022-12-08T16:53:55.133Z,79.86
2022-12-08T16:56:23.349Z,79.25
2022-12-08T16:58:53.058Z,79.65
2022-12-08T17:01:19.932Z,80.25
2022-12-08T17:04:07.116Z,80.50
2022-12-08T17:06:33.581Z,81.12
2022-12-08T17:09:00.253Z,81.04
2022-12-08T17:11:28.411Z,80.71
2022-12-08T17:13:55.020Z,80.14
2022-12-08T17:16:21.951Z,78.67
2022-12-08T17:18:48.717Z,78.26
2022-12-08T17:21:16.435Z,80.79
2022-12-08T17:23:43.672Z,79.41
2022-12-08T17:26:10.392Z,79.06
2022-12-08T17:28:59.414Z,78.47
2022-12-08T17:31:29.329Z,79.74
2022-12-08T17:34:04.927Z,79.75
2022-12-08T17:36:31.876Z,79.92
2022-12-08T17:38:58.887Z,79.97
2022-12-08T17:41:25.684Z,79.49
2022-12-08T17:43:52.290Z,79.50
2022-12-08T17:46:19.328Z,79.68
2022-12-08T17:48:46.202Z,79.56
2022-12-08T17:51:12.916Z,79.58
2022-12-08T17:53:42.525Z,81.85
2022-12-08T17:56:17.336Z,80.85
2022-12-08T17:58:44.908Z,80.59
2022-12-08T18:01:12.527Z,80.05
2022-12-08T18:03:39.282Z,80.11
2022-12-08T18:06:09.983Z,79.53
2022-12-08T18:08:36.982Z,82.27
2022-12-08T18:11:04.008Z,82.24
2022-12-08T18:13:30.730Z,81.42
2022-12-08T18:15:57.427Z,81.08
2022-12-08T18:18:24.089Z,80.04
2022-12-08T18:20:50.846Z,80.56
2022-12-08T18:23:17.840Z,81.11
2022-12-08T18:25:45.089Z,80.25
2022-12-08T18:28:11.770Z,80.42
2022-12-08T18:30:39.577Z,81.98
2022-12-08T18:33:06.945Z,81.66
2022-12-08T18:35:33.668Z,81.54
2022-12-08T18:38:00.655Z,80.98
2022-12-08T18:40:28.124Z,81.86
2022-12-08T18:42:54.813Z,81.87
2022-12-08T18:45:22.866Z,81.59
2022-12-08T18:47:50.457Z,80.63
2022-12-08T18:50:17.296Z,81.61
2022-12-08T18:52:45.123Z,82.12
2022-12-08T18:55:11.826Z,82.75
2022-12-08T18:57:39.006Z,82.82
2022-12-08T19:00:06.945Z,82.39
2022-12-08T19:02:34.049Z,81.87
2022-12-08T19:05:01.356Z,82.38
2022-12-08T19:07:28.066Z,81.93
2022-12-08T19:09:56.103Z,81.77
2022-12-08T19:12:22.837Z,82.60
2022-12-08T19:14:49.646Z,82.78
2022-12-08T19:17:16.312Z,83.14
2022-12-08T19:19:43.053Z,82.41
2022-12-08T19:22:09.720Z,82.76
2022-12-08T19:24:36.774Z,83.52
2022-12-08T19:27:04.328Z,83.59
2022-12-08T19:29:31.034Z,82.72
2022-12-08T19:31:57.789Z,82.61
2022-12-08T19:34:24.535Z,83.14
2022-12-08T19:36:51.231Z,83.52
2022-12-08T19:39:38.053Z,83.66
2022-12-08T19:42:34.426Z,83.39
2022-12-08T19:45:05.351Z,83.64
2022-12-08T19:47:32.155Z,83.07
2022-12-08T19:50:17.285Z,83.11
2022-12-08T19:52:44.262Z,83.56
2022-12-08T19:55:11.740Z,83.58
2022-12-08T19:57:38.548Z,83.19
2022-12-08T20:00:08.599Z,83.95
2022-12-08T20:02:36.739Z,82.44
2022-12-08T20:05:04.976Z,82.45
2022-12-08T20:07:31.751Z,83.60
2022-12-08T20:09:58.449Z,83.58
2022-12-08T20:12:25.131Z,83.96
2022-12-08T20:14:52.589Z,84.25
2022-12-08T20:17:19.537Z,84.00
2022-12-08T20:19:46.265Z,83.11
2022-12-08T20:22:12.929Z,82.55
2022-12-08T20:24:39.518Z,82.64
2022-12-08T20:27:06.213Z,83.33
2022-12-08T20:29:33.148Z,83.57
2022-12-08T20:31:59.776Z,83.70
2022-12-08T20:34:26.649Z,83.89
2022-12-08T20:36:53.262Z,84.83
2022-12-08T20:39:19.879Z,85.38
2022-12-08T20:41:46.754Z,85.27
2022-12-08T20:44:13.377Z,85.06
2022-12-08T20:46:41.839Z,85.24
2022-12-08T20:49:11.694Z,86.04
2022-12-08T20:51:38.404Z,86.32
2022-12-08T20:54:05.521Z,85.29
2022-12-08T20:56:32.760Z,85.55
2022-12-08T20:58:59.820Z,87.11
2022-12-08T21:01:26.538Z,86.56
2022-12-08T21:03:53.729Z,86.36
2022-12-08T21:06:22.528Z,87.46
2022-12-08T21:08:49.799Z,86.40
2022-12-08T21:11:16.799Z,85.83
2022-12-08T21:13:43.497Z,85.91
2022-12-08T21:16:13.748Z,86.00
2022-12-08T21:18:41.017Z,85.55
2022-12-08T21:21:09.773Z,86.57
2022-12-08T21:23:36.605Z,86.53
2022-12-08T21:26:03.602Z,86.55
2022-12-08T21:28:30.382Z,86.28
2022-12-08T21:30:57.375Z,86.60
2022-12-08T21:33:24.244Z,86.46
2022-12-08T21:35:51.070Z,85.49
2022-12-08T21:38:17.801Z,86.09
2022-12-08T21:40:44.538Z,86.00
2022-12-08T21:43:12.136Z,85.09
2022-12-08T21:45:38.865Z,84.87
2022-12-08T21:48:10.892Z,85.93
2022-12-08T21:50:38.006Z,86.05
2022-12-08T21:53:04.911Z,86.62
2022-12-08T21:55:31.607Z,86.80
2022-12-08T21:58:00.998Z,86.89
2022-12-08T22:00:28.079Z,87.99
2022-12-08T22:02:55.119Z,89.70
2022-12-08T22:05:22.091Z,88.62
2022-12-08T22:07:48.941Z,90.13
2022-12-08T22:10:15.761Z,91.21
2022-12-08T22:12:42.624Z,90.14
2022-12-08T22:15:10.302Z,89.23
2022-12-08T22:17:38.146Z,89.54
2022-12-08T22:20:06.957Z,88.28
2022-12-08T22:22:34.930Z,88.01
2022-12-08T22:25:02.444Z,88.22
2022-12-08T22:27:29.355Z,88.67
2022-12-08T22:29:56.036Z,88.24
2022-12-08T22:32:22.799Z,88.09
2022-12-08T22:34:49.445Z,88.00
2022-12-08T22:37:16.167Z,87.09
2022-12-08T22:39:42.824Z,85.43
2022-12-08T22:42:09.405Z,85.88
2022-12-08T22:44:36.089Z,85.42
2022-12-08T22:47:02.841Z,85.29
2022-12-08T22:49:29.545Z,84.88
2022-12-08T22:51:56.334Z,85.11
2022-12-08T22:54:23.123Z,83.38
2022-12-08T22:56:49.859Z,83.94
2022-12-08T22:59:16.573Z,84.39
2022-12-08T23:01:43.360Z,85.04
2022-12-08T23:04:17.249Z,84.66
2022-12-08T23:06:44.734Z,84.21
2022-12-08T23:09:11.994Z,85.06
2022-12-08T23:11:38.765Z,85.57
2022-12-08T23:14:05.445Z,85.29
2022-12-08T23:16:33.561Z,85.85
2022-12-08T23:19:00.445Z,85.09
2022-12-08T23:21:27.273Z,84.36
2022-12-08T23:23:54.246Z,84.50
2022-12-08T23:26:25.084Z,84.70
2022-12-08T23:28:51.940Z,85.62
2022-12-08T23:31:18.890Z,86.43
2022-12-08T23:33:45.695Z,85.88
2022-12-08T23:36:12.794Z,85.33
2022-12-08T23:38:39.563Z,85.12
2022-12-08T23:41:07.262Z,85.47
2022-12-08T23:43:34.245Z,86.25
2022-12-08T23:46:01.005Z,85.87
2022-12-08T23:48:28.893Z,86.16
2022-12-08T23:50:57.172Z,84.95
2022-12-08T23:53:23.968Z,86.09
2022-12-08T23:55:50.648Z,86.00
2022-12-08T23:58:17.349Z,85.62
